sensor_id;sensor_type;location;lat;lon;timestamp;pressure;altitude;pressure_sealevel;temperature;humidity
54453;BME280;40363;52.270;10.546;2022-07-15T00:00:19;76431.75;;;-147.06;62.57
54453;BME280;40363;52.270;10.546;2022-07-15T00:02:45;76435.84;;;-147.06;62.92
54453;BME280;40363;52.270;10.546;2022-07-15T00:05:13;76446.13;;;-147.06;63.17
54453;BME280;40363;52.270;10.546;2022-07-15T00:07:41;76444.06;;;-147.06;63.22
54453;BME280;40363;52.270;10.546;2022-07-15T00:10:09;76439.97;;;-147.06;63.07
54453;BME280;40363;52.270;10.546;2022-07-15T00:12:41;76442.03;;;-147.06;63.32
54453;BME280;40363;52.270;10.546;2022-07-15T00:15:09;76435.84;;;-147.06;63.04
54453;BME280;40363;52.270;10.546;2022-07-15T00:17:36;76442.03;;;-147.06;63.26
54453;BME280;40363;52.270;10.546;2022-07-15T00:20:03;76454.34;;;-147.06;63.66
54453;BME280;40363;52.270;10.546;2022-07-15T00:22:30;76452.28;;;-147.06;63.62
54453;BME280;40363;52.270;10.546;2022-07-15T00:24:58;76456.41;;;-147.06;63.80
54453;BME280;40363;52.270;10.546;2022-07-15T00:27:25;76466.69;;;-147.06;63.92
54453;BME280;40363;52.270;10.546;2022-07-15T00:29:51;76470.78;;;-147.06;64.11
54453;BME280;40363;52.270;10.546;2022-07-15T00:32:18;76466.69;;;-147.06;64.11
54453;BME280;40363;52.270;10.546;2022-07-15T00:34:44;76472.84;;;-147.06;64.38
54453;BME280;40363;52.270;10.546;2022-07-15T00:37:11;76472.84;;;-147.06;64.29
54453;BME280;40363;52.270;10.546;2022-07-15T00:39:37;76468.75;;;-147.06;64.18
54453;BME280;40363;52.270;10.546;2022-07-15T00:42:05;76476.97;;;-147.06;64.36
54453;BME280;40363;52.270;10.546;2022-07-15T00:44:32;76489.28;;;-147.06;64.43
54453;BME280;40363;52.270;10.546;2022-07-15T00:46:59;76489.28;;;-147.06;64.33
54453;BME280;40363;52.270;10.546;2022-07-15T00:49:26;76505.75;;;-147.06;64.37
54453;BME280;40363;52.270;10.546;2022-07-15T00:51:54;76509.84;;;-147.06;64.64
54453;BME280;40363;52.270;10.546;2022-07-15T00:54:23;76501.63;;;-147.06;64.52
54453;BME280;40363;52.270;10.546;2022-07-15T00:56:52;76505.75;;;-147.06;64.48
54453;BME280;40363;52.270;10.546;2022-07-15T00:59:22;76509.84;;;-147.06;64.48
54453;BME280;40363;52.270;10.546;2022-07-15T01:01:51;76505.75;;;-147.06;64.52
54453;BME280;40363;52.270;10.546;2022-07-15T01:04:20;76507.78;;;-147.06;64.47
54453;BME280;40363;52.270;10.546;2022-07-15T01:06:47;76501.63;;;-147.06;64.39
54453;BME280;40363;52.270;10.546;2022-07-15T01:09:13;76503.69;;;-147.06;64.44
54453;BME280;40363;52.270;10.546;2022-07-15T01:11:40;76505.75;;;-147.06;64.40
54453;BME280;40363;52.270;10.546;2022-07-15T01:14:07;76501.63;;;-147.06;64.34
54453;BME280;40363;52.270;10.546;2022-07-15T01:16:35;76513.97;;;-147.06;64.70
54453;BME280;40363;52.270;10.546;2022-07-15T01:19:01;76513.97;;;-147.06;64.70
54453;BME280;40363;52.270;10.546;2022-07-15T01:21:29;76511.91;;;-147.06;64.82
54453;BME280;40363;52.270;10.546;2022-07-15T01:23:56;76513.97;;;-147.06;64.59
54453;BME280;40363;52.270;10.546;2022-07-15T01:26:23;76522.19;;;-147.06;64.75
54453;BME280;40363;52.270;10.546;2022-07-15T01:28:49;76518.06;;;-147.06;64.71
54453;BME280;40363;52.270;10.546;2022-07-15T01:31:16;76516.00;;;-147.06;64.44
54453;BME280;40363;52.270;10.546;2022-07-15T01:33:42;76520.13;;;-147.06;64.14
54453;BME280;40363;52.270;10.546;2022-07-15T01:36:09;76511.91;;;-147.06;64.09
54453;BME280;40363;52.270;10.546;2022-07-15T01:38:37;76524.22;;;-147.06;64.26
54453;BME280;40363;52.270;10.546;2022-07-15T01:41:04;76520.13;;;-147.06;64.14
54453;BME280;40363;52.270;10.546;2022-07-15T01:43:30;76518.06;;;-147.06;64.13
54453;BME280;40363;52.270;10.546;2022-07-15T01:45:57;76534.50;;;-147.06;64.33
54453;BME280;40363;52.270;10.546;2022-07-15T01:48:23;76530.41;;;-147.06;64.37
54453;BME280;40363;52.270;10.546;2022-07-15T01:51:07;76538.63;;;-147.06;64.23
54453;BME280;40363;52.270;10.546;2022-07-15T01:53:34;76530.41;;;-147.06;64.34
54453;BME280;40363;52.270;10.546;2022-07-15T01:56:03;76518.06;;;-147.06;64.51
54453;BME280;40363;52.270;10.546;2022-07-15T01:58:30;76530.41;;;-147.06;64.75
54453;BME280;40363;52.270;10.546;2022-07-15T02:00:56;76532.47;;;-147.06;64.93
54453;BME280;40363;52.270;10.546;2022-07-15T02:03:23;76520.13;;;-147.06;64.80
54453;BME280;40363;52.270;10.546;2022-07-15T02:05:49;76518.06;;;-147.06;64.83
54453;BME280;40363;52.270;10.546;2022-07-15T02:08:16;76518.06;;;-147.06;65.00
54453;BME280;40363;52.270;10.546;2022-07-15T02:10:43;76516.00;;;-147.06;64.76
54453;BME280;40363;52.270;10.546;2022-07-15T02:13:13;76518.06;;;-147.06;64.75
54453;BME280;40363;52.270;10.546;2022-07-15T02:15:40;76505.75;;;-147.06;64.55
54453;BME280;40363;52.270;10.546;2022-07-15T02:18:08;76526.28;;;-147.06;64.78
54453;BME280;40363;52.270;10.546;2022-07-15T02:20:36;76526.28;;;-147.06;64.71
54453;BME280;40363;52.270;10.546;2022-07-15T02:23:03;76522.19;;;-147.06;64.66
54453;BME280;40363;52.270;10.546;2022-07-15T02:25:33;76513.97;;;-147.06;64.54
54453;BME280;40363;52.270;10.546;2022-07-15T02:28:01;76511.91;;;-147.06;64.44
54453;BME280;40363;52.270;10.546;2022-07-15T02:30:32;76516.00;;;-147.06;64.55
54453;BME280;40363;52.270;10.546;2022-07-15T02:32:59;76513.97;;;-147.06;64.31
54453;BME280;40363;52.270;10.546;2022-07-15T02:35:26;76522.19;;;-147.06;64.18
54453;BME280;40363;52.270;10.546;2022-07-15T02:37:53;76536.56;;;-147.06;64.13
54453;BME280;40363;52.270;10.546;2022-07-15T02:40:20;76522.19;;;-147.06;63.88
54453;BME280;40363;52.270;10.546;2022-07-15T02:42:48;76534.50;;;-147.06;63.86
54453;BME280;40363;52.270;10.546;2022-07-15T02:45:16;76528.34;;;-147.06;63.91
54453;BME280;40363;52.270;10.546;2022-07-15T02:47:44;76528.34;;;-147.06;63.56
54453;BME280;40363;52.270;10.546;2022-07-15T02:50:11;76530.41;;;-147.06;63.43
54453;BME280;40363;52.270;10.546;2022-07-15T02:52:38;76542.72;;;-147.06;63.67
54453;BME280;40363;52.270;10.546;2022-07-15T02:55:06;76532.47;;;-147.06;63.15
54453;BME280;40363;52.270;10.546;2022-07-15T02:57:32;76538.63;;;-147.06;63.12
54453;BME280;40363;52.270;10.546;2022-07-15T02:59:59;76530.41;;;-147.06;63.08
54453;BME280;40363;52.270;10.546;2022-07-15T03:02:26;76542.72;;;-147.06;62.94
54453;BME280;40363;52.270;10.546;2022-07-15T03:04:54;76542.72;;;-147.06;63.02
54453;BME280;40363;52.270;10.546;2022-07-15T03:07:22;76546.84;;;-147.06;62.95
54453;BME280;40363;52.270;10.546;2022-07-15T03:09:48;76550.97;;;-147.06;62.95
54453;BME280;40363;52.270;10.546;2022-07-15T03:12:15;76567.41;;;-147.06;63.07
54453;BME280;40363;52.270;10.546;2022-07-15T03:14:41;76559.19;;;-147.06;63.07
54453;BME280;40363;52.270;10.546;2022-07-15T03:17:08;76559.19;;;-147.06;62.94
54453;BME280;40363;52.270;10.546;2022-07-15T03:19:35;76557.13;;;-147.06;62.73
54453;BME280;40363;52.270;10.546;2022-07-15T03:22:05;76563.28;;;-147.06;62.93
54453;BME280;40363;52.270;10.546;2022-07-15T03:24:35;76563.28;;;-147.06;63.00
54453;BME280;40363;52.270;10.546;2022-07-15T03:27:01;76563.28;;;-147.06;62.79
54453;BME280;40363;52.270;10.546;2022-07-15T03:29:28;76585.91;;;-147.06;62.83
54453;BME280;40363;52.270;10.546;2022-07-15T03:31:55;76598.22;;;-147.06;62.88
54453;BME280;40363;52.270;10.546;2022-07-15T03:34:22;76604.41;;;-147.06;63.17
54453;BME280;40363;52.270;10.546;2022-07-15T03:36:50;76602.34;;;-147.06;62.95
54453;BME280;40363;52.270;10.546;2022-07-15T03:39:19;76598.22;;;-147.06;62.75
54453;BME280;40363;52.270;10.546;2022-07-15T03:41:45;76608.50;;;-147.06;62.80
54453;BME280;40363;52.270;10.546;2022-07-15T03:44:12;76604.41;;;-147.06;62.47
54453;BME280;40363;52.270;10.546;2022-07-15T03:46:39;76620.84;;;-147.06;62.83
54453;BME280;40363;52.270;10.546;2022-07-15T03:49:06;76608.50;;;-147.06;62.68
54453;BME280;40363;52.270;10.546;2022-07-15T03:51:33;76608.50;;;-147.06;62.82
54453;BME280;40363;52.270;10.546;2022-07-15T03:54:00;76612.63;;;-147.06;63.43
54453;BME280;40363;52.270;10.546;2022-07-15T03:56:29;76612.63;;;-147.06;63.41
54453;BME280;40363;52.270;10.546;2022-07-15T03:58:57;76633.16;;;-147.06;64.26
54453;BME280;40363;52.270;10.546;2022-07-15T04:01:23;76629.06;;;-147.06;64.08
54453;BME280;40363;52.270;10.546;2022-07-15T04:03:51;76645.50;;;-147.06;64.21
54453;BME280;40363;52.270;10.546;2022-07-15T04:06:19;76649.63;;;-147.06;64.43
54453;BME280;40363;52.270;10.546;2022-07-15T04:08:47;76653.72;;;-147.06;64.50
54453;BME280;40363;52.270;10.546;2022-07-15T04:11:14;76647.56;;;-147.06;63.94
54453;BME280;40363;52.270;10.546;2022-07-15T04:13:42;76645.50;;;-147.06;64.32
54453;BME280;40363;52.270;10.546;2022-07-15T04:16:09;76647.56;;;-147.06;64.51
54453;BME280;40363;52.270;10.546;2022-07-15T04:18:37;76647.56;;;-147.06;64.41
54453;BME280;40363;52.270;10.546;2022-07-15T04:21:04;76649.63;;;-147.06;64.30
54453;BME280;40363;52.270;10.546;2022-07-15T04:23:31;76639.34;;;-147.06;64.24
54453;BME280;40363;52.270;10.546;2022-07-15T04:25:57;76637.28;;;-147.06;64.01
54453;BME280;40363;52.270;10.546;2022-07-15T04:28:24;76633.16;;;-147.06;63.70
54453;BME280;40363;52.270;10.546;2022-07-15T04:30:52;76637.28;;;-147.06;63.91
54453;BME280;40363;52.270;10.546;2022-07-15T04:33:19;76622.91;;;-147.06;63.54
54453;BME280;40363;52.270;10.546;2022-07-15T04:35:46;76616.72;;;-147.06;63.05
54453;BME280;40363;52.270;10.546;2022-07-15T04:38:13;76606.44;;;-147.06;63.09
54453;BME280;40363;52.270;10.546;2022-07-15T04:40:40;76602.34;;;-147.06;62.79
54453;BME280;40363;52.270;10.546;2022-07-15T04:43:42;76592.06;;;-147.06;62.67
54453;BME280;40363;52.270;10.546;2022-07-15T04:46:10;76587.94;;;-147.06;62.49
54453;BME280;40363;52.270;10.546;2022-07-15T04:48:36;76579.72;;;-147.06;62.37
54453;BME280;40363;52.270;10.546;2022-07-15T04:51:21;76583.84;;;-147.06;62.19
54453;BME280;40363;52.270;10.546;2022-07-15T04:53:47;76565.34;;;-147.06;62.03
54453;BME280;40363;52.270;10.546;2022-07-15T04:56:15;76567.41;;;-147.06;62.15
54453;BME280;40363;52.270;10.546;2022-07-15T04:58:42;76577.69;;;-147.06;62.16
54453;BME280;40363;52.270;10.546;2022-07-15T05:01:10;76579.72;;;-147.06;62.45
54453;BME280;40363;52.270;10.546;2022-07-15T05:03:37;76579.72;;;-147.06;62.05
54453;BME280;40363;52.270;10.546;2022-07-15T05:06:11;76563.28;;;-147.06;62.04
54453;BME280;40363;52.270;10.546;2022-07-15T05:09:06;76550.97;;;-147.06;61.88
54453;BME280;40363;52.270;10.546;2022-07-15T05:14:42;76553.00;;;-147.06;61.54
54453;BME280;40363;52.270;10.546;2022-07-15T05:17:10;76542.72;;;-147.06;61.56
54453;BME280;40363;52.270;10.546;2022-07-15T05:19:37;76534.50;;;-147.06;61.06
54453;BME280;40363;52.270;10.546;2022-07-15T05:22:03;76513.97;;;-147.06;60.76
54453;BME280;40363;52.270;10.546;2022-07-15T05:24:30;76513.97;;;-147.06;60.40
54453;BME280;40363;52.270;10.546;2022-07-15T05:26:57;76509.84;;;-147.06;60.28
54453;BME280;40363;52.270;10.546;2022-07-15T05:29:24;76501.63;;;-147.06;59.64
54453;BME280;40363;52.270;10.546;2022-07-15T05:31:51;76507.78;;;-147.06;59.72
54453;BME280;40363;52.270;10.546;2022-07-15T05:34:19;76472.84;;;-147.06;59.23
54453;BME280;40363;52.270;10.546;2022-07-15T05:36:45;76485.19;;;-147.06;59.36
54453;BME280;40363;52.270;10.546;2022-07-15T05:39:12;76472.84;;;-147.06;59.09
54453;BME280;40363;52.270;10.546;2022-07-15T05:41:39;76468.75;;;-147.06;59.22
54453;BME280;40363;52.270;10.546;2022-07-15T05:44:05;76452.28;;;-147.06;58.73
54453;BME280;40363;52.270;10.546;2022-07-15T05:46:32;76462.56;;;-147.06;58.53
54453;BME280;40363;52.270;10.546;2022-07-15T05:48:58;76439.97;;;-147.06;58.28
54453;BME280;40363;52.270;10.546;2022-07-15T05:51:27;76429.69;;;-147.06;57.79
54453;BME280;40363;52.270;10.546;2022-07-15T05:53:53;76425.56;;;-147.06;58.18
54453;BME280;40363;52.270;10.546;2022-07-15T05:56:20;76415.31;;;-147.06;57.72
54453;BME280;40363;52.270;10.546;2022-07-15T05:58:47;76417.34;;;-147.06;57.59
54453;BME280;40363;52.270;10.546;2022-07-15T06:01:14;76429.69;;;-147.06;57.79
54453;BME280;40363;52.270;10.546;2022-07-15T06:03:41;76417.34;;;-147.06;57.38
54453;BME280;40363;52.270;10.546;2022-07-15T06:06:08;76409.13;;;-147.06;57.86
54453;BME280;40363;52.270;10.546;2022-07-15T06:08:36;76398.84;;;-147.06;57.18
54453;BME280;40363;52.270;10.546;2022-07-15T06:11:02;76386.53;;;-147.06;56.89
54453;BME280;40363;52.270;10.546;2022-07-15T06:13:29;76378.31;;;-147.06;56.88
54453;BME280;40363;52.270;10.546;2022-07-15T06:15:55;76359.81;;;-147.06;56.23
54453;BME280;40363;52.270;10.546;2022-07-15T06:18:22;76378.31;;;-147.06;56.56
54453;BME280;40363;52.270;10.546;2022-07-15T06:20:49;76386.53;;;-147.06;56.21
54453;BME280;40363;52.270;10.546;2022-07-15T06:23:15;76376.25;;;-147.06;56.38
54453;BME280;40363;52.270;10.546;2022-07-15T06:25:43;76357.75;;;-147.06;55.67
54453;BME280;40363;52.270;10.546;2022-07-15T06:28:10;76347.47;;;-147.06;55.60
54453;BME280;40363;52.270;10.546;2022-07-15T06:30:39;76337.19;;;-147.06;54.91
54453;BME280;40363;52.270;10.546;2022-07-15T06:33:05;76337.19;;;-147.06;54.65
54453;BME280;40363;52.270;10.546;2022-07-15T06:35:32;76320.75;;;-147.06;54.41
54453;BME280;40363;52.270;10.546;2022-07-15T06:37:59;76312.53;;;-147.06;54.28
54453;BME280;40363;52.270;10.546;2022-07-15T06:40:25;76316.66;;;-147.06;53.94
54453;BME280;40363;52.270;10.546;2022-07-15T06:42:53;76308.44;;;-147.06;54.06
54453;BME280;40363;52.270;10.546;2022-07-15T06:45:20;76318.69;;;-147.06;53.69
54453;BME280;40363;52.270;10.546;2022-07-15T06:47:46;76310.47;;;-147.06;53.32
54453;BME280;40363;52.270;10.546;2022-07-15T06:50:13;76316.66;;;-147.06;52.97
54453;BME280;40363;52.270;10.546;2022-07-15T06:52:40;76324.88;;;-147.06;53.40
54453;BME280;40363;52.270;10.546;2022-07-15T06:55:07;76316.66;;;-147.06;53.19
54453;BME280;40363;52.270;10.546;2022-07-15T06:57:35;76308.44;;;-147.06;52.99
54453;BME280;40363;52.270;10.546;2022-07-15T07:00:04;76318.69;;;-147.06;53.23
54453;BME280;40363;52.270;10.546;2022-07-15T07:02:32;76296.09;;;-147.06;52.91
54453;BME280;40363;52.270;10.546;2022-07-15T07:04:58;76302.25;;;-147.06;53.35
54453;BME280;40363;52.270;10.546;2022-07-15T07:07:25;76310.47;;;-147.06;52.84
54453;BME280;40363;52.270;10.546;2022-07-15T07:09:52;76294.03;;;-147.06;52.53
54453;BME280;40363;52.270;10.546;2022-07-15T07:12:28;76283.75;;;-147.06;52.45
54453;BME280;40363;52.270;10.546;2022-07-15T07:14:54;76261.16;;;-147.06;51.77
54453;BME280;40363;52.270;10.546;2022-07-15T07:17:22;76242.66;;;-147.06;51.32
54453;BME280;40363;52.270;10.546;2022-07-15T07:19:49;76201.56;;;-147.06;50.58
54453;BME280;40363;52.270;10.546;2022-07-15T07:22:16;76158.38;;;-147.06;49.45
54453;BME280;40363;52.270;10.546;2022-07-15T07:24:42;76127.56;;;-147.06;48.63
54453;BME280;40363;52.270;10.546;2022-07-15T07:27:10;76135.78;;;-147.06;48.18
54453;BME280;40363;52.270;10.546;2022-07-15T07:29:37;76072.06;;;-147.06;47.11
54453;BME280;40363;52.270;10.546;2022-07-15T07:32:04;76035.09;;;-147.06;45.96
54453;BME280;40363;52.270;10.546;2022-07-15T07:34:32;75985.75;;;-147.06;44.16
54453;BME280;40363;52.270;10.546;2022-07-15T07:36:59;76016.59;;;-147.06;44.57
54453;BME280;40363;52.270;10.546;2022-07-15T07:39:25;76049.47;;;-147.06;45.24
54453;BME280;40363;52.270;10.546;2022-07-15T07:41:52;76061.78;;;-147.06;44.90
54453;BME280;40363;52.270;10.546;2022-07-15T07:44:19;76096.72;;;-147.06;44.51
54453;BME280;40363;52.270;10.546;2022-07-15T07:46:46;75909.72;;;-147.06;41.98
54453;BME280;40363;52.270;10.546;2022-07-15T07:49:13;75996.03;;;-147.06;43.13
54453;BME280;40363;52.270;10.546;2022-07-15T07:51:42;76037.13;;;-147.06;42.53
54453;BME280;40363;52.270;10.546;2022-07-15T07:54:08;76002.19;;;-147.06;42.12
54453;BME280;40363;52.270;10.546;2022-07-15T07:56:35;76039.19;;;-147.06;43.14
54453;BME280;40363;52.270;10.546;2022-07-15T07:59:02;76045.34;;;-147.06;42.17
54453;BME280;40363;52.270;10.546;2022-07-15T08:01:28;76113.19;;;-147.06;43.16
54453;BME280;40363;52.270;10.546;2022-07-15T08:03:55;76135.78;;;-147.06;43.68
54453;BME280;40363;52.270;10.546;2022-07-15T08:06:21;76166.63;;;-147.06;44.04
54453;BME280;40363;52.270;10.546;2022-07-15T08:08:49;76191.28;;;-147.06;44.43
54453;BME280;40363;52.270;10.546;2022-07-15T08:11:17;76181.00;;;-147.06;44.17
54453;BME280;40363;52.270;10.546;2022-07-15T08:13:45;76191.28;;;-147.06;43.67
54453;BME280;40363;52.270;10.546;2022-07-15T08:16:12;76199.50;;;-147.06;43.57
54453;BME280;40363;52.270;10.546;2022-07-15T08:18:38;76172.78;;;-147.06;43.13
54453;BME280;40363;52.270;10.546;2022-07-15T08:21:05;76176.88;;;-147.06;42.29
54453;BME280;40363;52.270;10.546;2022-07-15T08:23:32;76144.00;;;-147.06;42.35
54453;BME280;40363;52.270;10.546;2022-07-15T08:26:00;76135.78;;;-147.06;42.58
54453;BME280;40363;52.270;10.546;2022-07-15T08:28:26;76117.28;;;-147.06;41.43
54453;BME280;40363;52.270;10.546;2022-07-15T08:30:55;76053.56;;;-147.06;40.68
54453;BME280;40363;52.270;10.546;2022-07-15T08:33:22;75975.47;;;-147.06;39.30
54453;BME280;40363;52.270;10.546;2022-07-15T08:35:50;76033.03;;;-147.06;39.40
54453;BME280;40363;52.270;10.546;2022-07-15T08:38:18;76020.69;;;-147.06;39.64
54453;BME280;40363;52.270;10.546;2022-07-15T08:40:44;76018.63;;;-147.06;39.78
54453;BME280;40363;52.270;10.546;2022-07-15T08:43:12;76061.78;;;-147.06;40.51
54453;BME280;40363;52.270;10.546;2022-07-15T08:45:44;76086.47;;;-147.06;41.14
54453;BME280;40363;52.270;10.546;2022-07-15T08:48:14;76141.94;;;-147.06;41.42
54453;BME280;40363;52.270;10.546;2022-07-15T08:50:41;76152.22;;;-147.06;41.78
54453;BME280;40363;52.270;10.546;2022-07-15T08:53:08;76181.00;;;-147.06;42.10
54453;BME280;40363;52.270;10.546;2022-07-15T08:55:34;76197.44;;;-147.06;42.90
54453;BME280;40363;52.270;10.546;2022-07-15T08:58:01;76199.50;;;-147.06;43.11
54453;BME280;40363;52.270;10.546;2022-07-15T09:00:29;76213.88;;;-147.06;43.74
54453;BME280;40363;52.270;10.546;2022-07-15T09:02:57;76201.56;;;-147.06;43.57
54453;BME280;40363;52.270;10.546;2022-07-15T09:05:26;76191.28;;;-147.06;43.54
54453;BME280;40363;52.270;10.546;2022-07-15T09:07:59;76152.22;;;-147.06;43.18
54453;BME280;40363;52.270;10.546;2022-07-15T09:10:41;76135.78;;;-147.06;43.00
54453;BME280;40363;52.270;10.546;2022-07-15T09:13:08;76123.44;;;-147.06;42.96
54453;BME280;40363;52.270;10.546;2022-07-15T09:15:38;76125.50;;;-147.06;42.54
54453;BME280;40363;52.270;10.546;2022-07-15T09:18:08;76090.56;;;-147.06;42.10
54453;BME280;40363;52.270;10.546;2022-07-15T09:20:35;76057.69;;;-147.06;41.78
54453;BME280;40363;52.270;10.546;2022-07-15T09:23:03;76061.78;;;-147.06;41.55
54453;BME280;40363;52.270;10.546;2022-07-15T09:25:30;76080.28;;;-147.06;41.83
54453;BME280;40363;52.270;10.546;2022-07-15T09:27:59;76092.63;;;-147.06;41.96
54453;BME280;40363;52.270;10.546;2022-07-15T09:30:28;76098.78;;;-147.06;42.07
54453;BME280;40363;52.270;10.546;2022-07-15T09:33:18;76086.47;;;-147.06;41.70
54453;BME280;40363;52.270;10.546;2022-07-15T09:36:08;76057.69;;;-147.06;41.38
54453;BME280;40363;52.270;10.546;2022-07-15T09:38:38;76041.25;;;-147.06;41.11
54453;BME280;40363;52.270;10.546;2022-07-15T09:41:09;76033.03;;;-147.06;40.75
54453;BME280;40363;52.270;10.546;2022-07-15T09:43:49;76070.00;;;-147.06;41.04
54453;BME280;40363;52.270;10.546;2022-07-15T09:46:19;76074.13;;;-147.06;41.01
54453;BME280;40363;52.270;10.546;2022-07-15T09:48:51;76061.78;;;-147.06;41.13
54453;BME280;40363;52.270;10.546;2022-07-15T09:51:19;76078.25;;;-147.06;41.31
54453;BME280;40363;52.270;10.546;2022-07-15T09:53:46;76074.13;;;-147.06;41.32
54453;BME280;40363;52.270;10.546;2022-07-15T09:56:17;76109.06;;;-147.06;41.67
54453;BME280;40363;52.270;10.546;2022-07-15T09:58:47;76107.00;;;-147.06;41.66
54453;BME280;40363;52.270;10.546;2022-07-15T10:01:14;76098.78;;;-147.06;41.19
54453;BME280;40363;52.270;10.546;2022-07-15T10:03:40;76127.56;;;-147.06;41.49
54453;BME280;40363;52.270;10.546;2022-07-15T10:06:09;76146.06;;;-147.06;41.60
54453;BME280;40363;52.270;10.546;2022-07-15T10:08:38;76166.63;;;-147.06;42.28
54453;BME280;40363;52.270;10.546;2022-07-15T10:11:08;76154.28;;;-147.06;42.36
54453;BME280;40363;52.270;10.546;2022-07-15T10:13:53;76152.22;;;-147.06;42.63
54453;BME280;40363;52.270;10.546;2022-07-15T10:16:35;76141.94;;;-147.06;42.13
54453;BME280;40363;52.270;10.546;2022-07-15T10:19:18;76146.06;;;-147.06;42.58
54453;BME280;40363;52.270;10.546;2022-07-15T10:21:58;76121.41;;;-147.06;42.40
54453;BME280;40363;52.270;10.546;2022-07-15T10:24:45;76090.56;;;-147.06;41.83
54453;BME280;40363;52.270;10.546;2022-07-15T10:27:26;76061.78;;;-147.06;41.54
54453;BME280;40363;52.270;10.546;2022-07-15T10:29:56;76028.91;;;-147.06;40.79
54453;BME280;40363;52.270;10.546;2022-07-15T10:32:23;76008.38;;;-147.06;40.39
54453;BME280;40363;52.270;10.546;2022-07-15T10:34:50;75977.53;;;-147.06;40.20
54453;BME280;40363;52.270;10.546;2022-07-15T10:37:18;75959.03;;;-147.06;39.86
54453;BME280;40363;52.270;10.546;2022-07-15T10:39:53;75924.09;;;-147.06;39.51
54453;BME280;40363;52.270;10.546;2022-07-15T10:42:21;75915.88;;;-147.06;39.20
54453;BME280;40363;52.270;10.546;2022-07-15T10:44:50;75907.66;;;-147.06;38.29
54453;BME280;40363;52.270;10.546;2022-07-15T10:47:27;75979.59;;;-147.06;38.62
54453;BME280;40363;52.270;10.546;2022-07-15T10:49:54;75967.25;;;-147.06;38.44
54453;BME280;40363;52.270;10.546;2022-07-15T10:52:23;75973.44;;;-147.06;38.74
54453;BME280;40363;52.270;10.546;2022-07-15T10:54:59;75971.38;;;-147.06;38.56
54453;BME280;40363;52.270;10.546;2022-07-15T10:57:50;75934.38;;;-147.06;38.73
54453;BME280;40363;52.270;10.546;2022-07-15T11:00:26;75887.13;;;-147.06;38.56
54453;BME280;40363;52.270;10.546;2022-07-15T11:03:05;75883.00;;;-147.06;38.58
54453;BME280;40363;52.270;10.546;2022-07-15T11:05:33;75887.13;;;-147.06;38.44
54453;BME280;40363;52.270;10.546;2022-07-15T11:11:44;75868.63;;;-147.06;38.16
54453;BME280;40363;52.270;10.546;2022-07-15T11:14:41;75872.72;;;-147.06;38.30
54453;BME280;40363;52.270;10.546;2022-07-15T11:17:08;75895.34;;;-147.06;38.34
54453;BME280;40363;52.270;10.546;2022-07-15T11:19:36;75889.16;;;-147.06;38.19
54453;BME280;40363;52.270;10.546;2022-07-15T11:22:03;75905.59;;;-147.06;39.07
54453;BME280;40363;52.270;10.546;2022-07-15T11:24:30;75899.44;;;-147.06;38.97
54453;BME280;40363;52.270;10.546;2022-07-15T11:26:59;75901.50;;;-147.06;38.58
54453;BME280;40363;52.270;10.546;2022-07-15T11:29:29;75864.50;;;-147.06;38.42
54453;BME280;40363;52.270;10.546;2022-07-15T11:32:06;75841.91;;;-147.06;37.89
54453;BME280;40363;52.270;10.546;2022-07-15T11:34:38;75821.34;;;-147.06;37.73
54453;BME280;40363;52.270;10.546;2022-07-15T11:37:05;75848.06;;;-147.06;38.09
54453;BME280;40363;52.270;10.546;2022-07-15T11:39:33;75858.34;;;-147.06;38.26
54453;BME280;40363;52.270;10.546;2022-07-15T11:41:59;75848.06;;;-147.06;38.26
54453;BME280;40363;52.270;10.546;2022-07-15T11:44:45;75819.28;;;-147.06;38.16
54453;BME280;40363;52.270;10.546;2022-07-15T11:47:12;75800.81;;;-147.06;37.70
54453;BME280;40363;52.270;10.546;2022-07-15T11:49:38;75802.84;;;-147.06;38.21
54453;BME280;40363;52.270;10.546;2022-07-15T11:52:08;75819.28;;;-147.06;38.08
54453;BME280;40363;52.270;10.546;2022-07-15T11:54:38;75839.84;;;-147.06;38.44
54453;BME280;40363;52.270;10.546;2022-07-15T11:57:10;75870.66;;;-147.06;39.10
54453;BME280;40363;52.270;10.546;2022-07-15T11:59:38;75876.84;;;-147.06;39.35
54453;BME280;40363;52.270;10.546;2022-07-15T12:02:07;75864.50;;;-147.06;39.75
54453;BME280;40363;52.270;10.546;2022-07-15T12:04:35;75843.97;;;-147.06;39.84
54453;BME280;40363;52.270;10.546;2022-07-15T12:07:02;75850.13;;;-147.06;39.52
54453;BME280;40363;52.270;10.546;2022-07-15T12:09:39;75806.97;;;-147.06;39.32
54453;BME280;40363;52.270;10.546;2022-07-15T12:12:06;75790.53;;;-147.06;38.96
54453;BME280;40363;52.270;10.546;2022-07-15T12:14:33;75774.09;;;-147.06;38.30
54453;BME280;40363;52.270;10.546;2022-07-15T12:16:59;75765.88;;;-147.06;38.45
54453;BME280;40363;52.270;10.546;2022-07-15T12:19:28;75774.09;;;-147.06;38.46
54453;BME280;40363;52.270;10.546;2022-07-15T12:21:56;75735.03;;;-147.06;38.06
54453;BME280;40363;52.270;10.546;2022-07-15T12:24:24;75753.53;;;-147.06;38.18
54453;BME280;40363;52.270;10.546;2022-07-15T12:26:59;75739.16;;;-147.06;38.14
54453;BME280;40363;52.270;10.546;2022-07-15T12:29:28;75765.88;;;-147.06;37.90
54453;BME280;40363;52.270;10.546;2022-07-15T12:31:56;75788.47;;;-147.06;38.55
54453;BME280;40363;52.270;10.546;2022-07-15T12:34:50;75796.69;;;-147.06;37.87
54453;BME280;40363;52.270;10.546;2022-07-15T12:37:19;75786.41;;;-147.06;38.15
54453;BME280;40363;52.270;10.546;2022-07-15T12:39:57;75804.91;;;-147.06;38.29
54453;BME280;40363;52.270;10.546;2022-07-15T12:42:26;75759.69;;;-147.06;37.74
54453;BME280;40363;52.270;10.546;2022-07-15T12:45:05;75759.69;;;-147.06;37.55